createdAt,value
2023-05-19T00:01:17.572Z,12.20
2023-05-19T00:03:57.689Z,12.20
2023-05-19T00:06:26.944Z,12.20
2023-05-19T00:09:01.149Z,12.10
2023-05-19T00:11:29.007Z,12.20
2023-05-19T00:13:58.433Z,12.20
2023-05-19T00:16:26.881Z,12.20
2023-05-19T00:18:54.269Z,12.20
2023-05-19T00:21:21.488Z,12.10
2023-05-19T00:23:48.368Z,12.10
2023-05-19T00:26:15.637Z,12.10
2023-05-19T00:28:42.426Z,12.10
2023-05-19T00:31:09.235Z,12.00
2023-05-19T00:33:36.044Z,12.00
2023-05-19T00:36:03.719Z,12.00
2023-05-19T00:38:35.267Z,11.90
2023-05-19T00:41:03.995Z,11.90
2023-05-19T00:43:31.012Z,11.80
2023-05-19T00:45:58.087Z,11.80
2023-05-19T00:48:28.011Z,11.80
2023-05-19T00:51:02.147Z,11.80
2023-05-19T00:53:29.607Z,11.70
2023-05-19T00:55:56.819Z,11.70
2023-05-19T00:58:29.162Z,11.70
2023-05-19T01:01:04.227Z,11.80
2023-05-19T01:03:35.036Z,11.70
2023-05-19T01:06:05.269Z,11.70
2023-05-19T01:08:33.433Z,11.70
2023-05-19T01:11:00.297Z,11.70
2023-05-19T01:13:28.892Z,11.70
2023-05-19T01:16:12.535Z,11.70
2023-05-19T01:19:04.249Z,11.60
2023-05-19T01:21:51.160Z,11.60
2023-05-19T01:24:35.738Z,11.60
2023-05-19T01:27:15.013Z,11.60
2023-05-19T01:29:41.955Z,11.60
2023-05-19T01:32:10.731Z,11.60
2023-05-19T01:34:42.539Z,11.50
2023-05-19T01:37:10.037Z,11.50
2023-05-19T01:39:38.315Z,11.50
2023-05-19T01:42:06.649Z,11.40
2023-05-19T01:44:34.236Z,11.40
2023-05-19T01:47:01.880Z,11.40
2023-05-19T01:49:28.853Z,11.30
2023-05-19T01:51:56.530Z,11.30
2023-05-19T01:54:23.450Z,11.30
2023-05-19T01:57:20.975Z,11.20
2023-05-19T02:00:07.584Z,11.20
2023-05-19T02:03:00.620Z,11.20
2023-05-19T02:06:04.119Z,11.20
2023-05-19T02:08:38.985Z,11.20
2023-05-19T02:11:14.962Z,11.10
2023-05-19T02:13:44.373Z,11.20
2023-05-19T02:16:13.479Z,11.10
2023-05-19T02:18:45.439Z,11.20
2023-05-19T02:21:13.510Z,11.20
2023-05-19T02:23:42.052Z,11.10
2023-05-19T02:26:08.809Z,11.20
2023-05-19T02:28:36.630Z,11.20
2023-05-19T02:31:05.252Z,11.10
2023-05-19T02:33:32.386Z,11.20
2023-05-19T02:35:59.074Z,11.20
2023-05-19T02:38:25.945Z,11.20
2023-05-19T02:40:53.394Z,11.20
2023-05-19T02:43:20.386Z,11.10
2023-05-19T02:45:47.087Z,11.10
2023-05-19T02:48:13.981Z,11.20
2023-05-19T02:50:40.784Z,11.20
2023-05-19T02:53:07.734Z,11.10
2023-05-19T02:55:34.659Z,11.10
2023-05-19T02:58:01.395Z,11.10
2023-05-19T03:00:28.228Z,11.10
2023-05-19T03:02:55.691Z,11.00
2023-05-19T03:05:22.695Z,11.10
2023-05-19T03:07:49.450Z,11.00
2023-05-19T03:10:16.204Z,11.00
2023-05-19T03:12:42.978Z,11.00
2023-05-19T03:15:10.118Z,11.00
2023-05-19T03:17:37.066Z,11.00
2023-05-19T03:20:05.453Z,11.00
2023-05-19T03:22:32.294Z,11.00
2023-05-19T03:24:59.091Z,10.90
2023-05-19T03:27:25.849Z,10.90
2023-05-19T03:29:53.885Z,10.90
2023-05-19T03:32:20.875Z,10.90
2023-05-19T03:34:47.757Z,10.90
2023-05-19T03:37:14.898Z,10.90
2023-05-19T03:39:41.744Z,10.90
2023-05-19T03:42:08.651Z,10.90
2023-05-19T03:44:35.567Z,10.90
2023-05-19T03:47:02.300Z,10.90
2023-05-19T03:49:29.057Z,10.90
2023-05-19T03:51:55.990Z,10.90
2023-05-19T03:54:22.877Z,10.90
2023-05-19T03:56:49.847Z,10.90
2023-05-19T03:59:16.595Z,10.90
2023-05-19T04:01:43.357Z,10.80
2023-05-19T04:04:10.156Z,10.80
2023-05-19T04:06:37.717Z,10.70
2023-05-19T04:09:13.339Z,10.70
2023-05-19T04:11:40.902Z,10.60
2023-05-19T04:14:08.419Z,10.70
2023-05-19T04:16:35.894Z,10.50
2023-05-19T04:19:02.671Z,10.50
2023-05-19T04:21:29.451Z,10.50
2023-05-19T04:23:56.267Z,10.50
2023-05-19T04:26:24.949Z,10.50
2023-05-19T04:28:52.056Z,10.40
2023-05-19T04:31:20.821Z,10.40
2023-05-19T04:33:48.306Z,10.40
2023-05-19T04:36:17.402Z,10.40
2023-05-19T04:38:46.543Z,10.40
2023-05-19T04:41:13.512Z,10.40
2023-05-19T04:43:44.666Z,10.40
2023-05-19T04:46:13.735Z,10.50
2023-05-19T04:48:41.341Z,10.50
2023-05-19T04:51:08.419Z,10.50
2023-05-19T04:53:35.655Z,10.50
2023-05-19T04:56:02.506Z,10.50
2023-05-19T04:58:30.062Z,10.40
2023-05-19T05:00:57.892Z,10.40
2023-05-19T05:03:25.284Z,10.40
2023-05-19T05:05:52.478Z,10.40
2023-05-19T05:08:23.514Z,10.40
2023-05-19T05:10:52.415Z,10.40
2023-05-19T05:13:24.098Z,10.40
2023-05-19T05:15:52.268Z,10.30
2023-05-19T05:18:19.695Z,10.30
2023-05-19T05:20:46.979Z,10.30
2023-05-19T05:23:17.166Z,10.30
2023-05-19T05:25:44.915Z,10.30
2023-05-19T05:28:11.883Z,10.30
2023-05-19T05:30:38.914Z,10.30
2023-05-19T05:33:06.275Z,10.30
2023-05-19T05:35:33.510Z,10.40
2023-05-19T05:38:01.655Z,10.30
2023-05-19T05:40:28.578Z,10.40
2023-05-19T05:42:56.808Z,10.40
2023-05-19T05:45:23.608Z,10.50
2023-05-19T05:47:51.315Z,10.50
2023-05-19T05:50:18.790Z,10.60
2023-05-19T05:52:48.846Z,10.60
2023-05-19T05:55:17.500Z,10.70
2023-05-19T05:57:44.390Z,10.70
2023-05-19T06:00:15.773Z,10.80
2023-05-19T06:02:49.411Z,10.80
2023-05-19T06:05:16.626Z,10.90
2023-05-19T06:07:43.483Z,10.90
2023-05-19T06:10:10.796Z,11.00
2023-05-19T06:12:40.848Z,11.10
2023-05-19T06:15:08.330Z,11.10
2023-05-19T06:17:36.116Z,11.20
2023-05-19T06:20:05.616Z,11.30
2023-05-19T06:22:32.575Z,11.40
2023-05-19T06:24:59.526Z,11.40
2023-05-19T06:27:26.201Z,11.40
2023-05-19T06:29:53.196Z,11.50
2023-05-19T06:32:20.130Z,11.50
2023-05-19T06:34:53.895Z,11.50
2023-05-19T06:37:23.002Z,11.50
2023-05-19T06:39:53.743Z,11.50
2023-05-19T06:42:22.903Z,11.50
2023-05-19T06:44:53.285Z,11.60
2023-05-19T06:47:20.277Z,11.70
2023-05-19T06:49:50.668Z,11.70
2023-05-19T06:52:17.540Z,11.60
2023-05-19T06:54:44.317Z,11.70
2023-05-19T06:57:11.128Z,11.70
2023-05-19T06:59:40.763Z,11.70
2023-05-19T07:02:07.946Z,11.80
2023-05-19T07:04:35.576Z,11.90
2023-05-19T07:07:03.138Z,11.90
2023-05-19T07:09:29.881Z,12.00
2023-05-19T07:11:56.827Z,11.90
2023-05-19T07:14:23.790Z,12.00
2023-05-19T07:16:50.544Z,11.90
2023-05-19T07:19:19.664Z,12.00
2023-05-19T07:21:47.639Z,12.10
2023-05-19T07:24:14.355Z,12.10
2023-05-19T07:26:42.600Z,12.20
2023-05-19T07:29:09.357Z,12.20
2023-05-19T07:31:36.099Z,12.20
2023-05-19T07:34:03.500Z,12.20
2023-05-19T07:36:30.359Z,12.30
2023-05-19T07:38:57.168Z,12.40
2023-05-19T07:41:24.202Z,12.50
2023-05-19T07:43:50.987Z,12.50
2023-05-19T07:46:17.840Z,12.50
2023-05-19T07:48:44.647Z,12.60
2023-05-19T07:51:12.791Z,12.40
2023-05-19T07:53:39.736Z,12.50
2023-05-19T07:56:06.568Z,12.50
2023-05-19T07:58:33.305Z,12.40
2023-05-19T08:01:00.509Z,12.50
2023-05-19T08:03:27.655Z,12.50
2023-05-19T08:05:54.703Z,12.50
2023-05-19T08:08:22.015Z,12.50
2023-05-19T08:10:48.842Z,12.60
2023-05-19T08:13:15.695Z,12.50
2023-05-19T08:15:42.872Z,12.50
2023-05-19T08:18:12.800Z,12.50
2023-05-19T08:20:39.658Z,12.50
2023-05-19T08:23:06.503Z,12.40
2023-05-19T08:25:33.365Z,12.50
2023-05-19T08:28:00.130Z,12.50
2023-05-19T08:30:26.942Z,12.50
2023-05-19T08:32:53.716Z,12.50
2023-05-19T08:35:20.602Z,12.60
2023-05-19T08:37:47.638Z,12.60
2023-05-19T08:40:17.639Z,12.60
2023-05-19T08:42:45.950Z,12.70
2023-05-19T08:45:13.128Z,12.70
2023-05-19T08:47:47.122Z,12.70
2023-05-19T08:50:24.884Z,12.80
2023-05-19T08:52:57.712Z,12.80
2023-05-19T08:55:53.281Z,12.90
2023-05-19T08:58:21.940Z,12.90
2023-05-19T09:00:49.378Z,12.90
2023-05-19T09:03:23.179Z,13.00
2023-05-19T09:05:51.033Z,13.00
2023-05-19T09:08:18.411Z,13.00
2023-05-19T09:10:45.282Z,13.00
2023-05-19T09:13:12.214Z,13.10
2023-05-19T09:15:39.929Z,13.10
2023-05-19T09:18:11.686Z,13.20
2023-05-19T09:20:43.503Z,13.10
2023-05-19T09:23:18.277Z,13.10
2023-05-19T09:25:49.648Z,13.10
2023-05-19T09:28:31.697Z,13.10
2023-05-19T09:31:00.191Z,13.10
2023-05-19T09:33:28.466Z,13.10
2023-05-19T09:35:59.004Z,13.10
2023-05-19T09:38:27.124Z,13.10
2023-05-19T09:40:59.609Z,13.10
2023-05-19T09:43:33.732Z,13.10
2023-05-19T09:46:03.685Z,13.20
2023-05-19T09:48:30.558Z,13.10
2023-05-19T09:50:58.135Z,13.10
2023-05-19T09:53:25.519Z,13.20
2023-05-19T09:55:59.150Z,13.10
2023-05-19T09:58:27.154Z,13.10
2023-05-19T10:00:57.111Z,13.10
2023-05-19T10:03:25.301Z,13.10
2023-05-19T10:05:53.727Z,13.10
2023-05-19T10:08:21.531Z,13.10
2023-05-19T10:10:48.377Z,13.10
2023-05-19T10:13:16.803Z,13.10
2023-05-19T10:15:57.450Z,13.10
2023-05-19T10:18:26.983Z,13.10
2023-05-19T10:20:54.366Z,13.10
2023-05-19T10:23:22.177Z,13.10
2023-05-19T10:25:51.373Z,13.10
2023-05-19T10:28:21.139Z,13.10
2023-05-19T10:30:53.292Z,13.10
2023-05-19T10:33:29.577Z,13.10
2023-05-19T10:36:14.225Z,13.10
2023-05-19T10:38:56.425Z,13.00
2023-05-19T10:41:39.552Z,13.00
2023-05-19T10:44:18.199Z,13.00
2023-05-19T10:46:45.176Z,13.10
2023-05-19T10:49:21.571Z,13.20
2023-05-19T10:51:48.738Z,13.20
2023-05-19T10:54:17.347Z,13.10
2023-05-19T10:56:47.484Z,13.10
2023-05-19T10:59:39.917Z,13.20
2023-05-19T11:02:08.511Z,13.30
2023-05-19T11:04:54.065Z,13.30
2023-05-19T11:07:22.364Z,13.30
2023-05-19T11:09:51.710Z,13.30
2023-05-19T11:12:24.678Z,13.30
2023-05-19T11:14:55.773Z,13.30
2023-05-19T11:17:25.523Z,13.30
2023-05-19T11:19:57.158Z,13.30
2023-05-19T11:22:27.469Z,13.30
2023-05-19T11:24:57.573Z,13.30
2023-05-19T11:27:35.614Z,13.30
2023-05-19T11:30:11.807Z,13.30
2023-05-19T11:32:39.410Z,13.30
2023-05-19T11:35:07.880Z,13.30
2023-05-19T11:37:35.084Z,13.30
2023-05-19T11:40:04.784Z,13.30
2023-05-19T11:42:32.272Z,13.30
2023-05-19T11:44:59.028Z,13.40
2023-05-19T11:47:27.435Z,13.40
2023-05-19T11:49:56.953Z,13.40
2023-05-19T11:52:24.808Z,13.40
2023-05-19T11:54:52.410Z,13.30
2023-05-19T11:57:19.781Z,13.30
2023-05-19T11:59:49.653Z,13.40
2023-05-19T12:02:21.636Z,13.40
2023-05-19T12:04:49.463Z,13.40
2023-05-19T12:07:18.328Z,13.40
2023-05-19T12:09:48.952Z,13.50
2023-05-19T12:12:20.029Z,13.50
2023-05-19T12:14:48.600Z,13.50
2023-05-19T12:17:17.683Z,13.50
2023-05-19T12:19:46.121Z,13.50
2023-05-19T12:22:14.585Z,13.50
2023-05-19T12:24:42.760Z,13.50
2023-05-19T12:27:21.009Z,13.50
2023-05-19T12:29:52.472Z,13.50
2023-05-19T12:32:22.921Z,13.50
2023-05-19T12:34:50.264Z,13.50
2023-05-19T12:37:17.572Z,13.40
2023-05-19T12:39:44.538Z,13.40
2023-05-19T12:42:15.247Z,13.40
2023-05-19T12:44:47.731Z,13.50
2023-05-19T12:47:16.210Z,13.50
2023-05-19T12:49:56.733Z,13.50
2023-05-19T12:52:24.298Z,13.50
2023-05-19T12:54:58.690Z,13.50
2023-05-19T12:57:26.972Z,13.60
2023-05-19T12:59:59.949Z,13.50
2023-05-19T13:02:26.824Z,13.50
2023-05-19T13:04:54.961Z,13.50
2023-05-19T13:07:21.822Z,13.50
2023-05-19T13:09:48.590Z,13.40
2023-05-19T13:12:15.508Z,13.40
2023-05-19T13:14:43.557Z,13.40
2023-05-19T13:17:10.399Z,13.50
2023-05-19T13:19:37.204Z,13.60
2023-05-19T13:22:04.291Z,13.60
2023-05-19T13:24:31.002Z,13.60
2023-05-19T13:26:57.787Z,13.60
2023-05-19T13:29:24.585Z,13.60
2023-05-19T13:31:51.317Z,13.50
2023-05-19T13:34:19.724Z,13.60
2023-05-19T13:36:48.246Z,13.50
2023-05-19T13:39:15.615Z,13.50
2023-05-19T13:41:42.354Z,13.50
2023-05-19T13:44:09.130Z,13.50
2023-05-19T13:46:44.835Z,13.50
2023-05-19T13:49:12.626Z,13.50
2023-05-19T13:51:42.695Z,13.50
2023-05-19T13:54:09.957Z,13.50
2023-05-19T13:56:36.992Z,13.50
2023-05-19T13:59:04.133Z,13.60
2023-05-19T14:01:31.426Z,13.60
2023-05-19T14:03:58.412Z,13.60
2023-05-19T14:06:25.377Z,13.70
2023-05-19T14:08:52.214Z,13.70
2023-05-19T14:11:19.952Z,13.70
2023-05-19T14:13:52.535Z,13.80
2023-05-19T14:16:20.461Z,13.80
2023-05-19T14:18:47.405Z,13.80
2023-05-19T14:21:15.828Z,13.80
2023-05-19T14:23:42.583Z,13.80
2023-05-19T14:26:09.559Z,13.80
2023-05-19T14:28:36.348Z,13.80
2023-05-19T14:31:03.372Z,13.90
2023-05-19T14:33:34.869Z,13.90
2023-05-19T14:36:02.383Z,13.90
2023-05-19T14:38:29.622Z,13.90
2023-05-19T14:40:56.771Z,13.90
2023-05-19T14:43:23.698Z,14.00
2023-05-19T14:45:50.588Z,14.00
2023-05-19T14:48:18.076Z,14.00
2023-05-19T14:50:46.128Z,14.00
2023-05-19T14:53:12.972Z,14.00
2023-05-19T14:55:39.888Z,14.00
2023-05-19T14:58:13.064Z,14.00
2023-05-19T15:00:48.007Z,14.00
2023-05-19T15:03:14.796Z,13.90
2023-05-19T15:05:41.576Z,13.90
2023-05-19T15:08:08.346Z,13.90
2023-05-19T15:10:35.231Z,13.90
2023-05-19T15:13:02.023Z,13.90
2023-05-19T15:15:28.818Z,13.90
2023-05-19T15:17:55.653Z,13.90
2023-05-19T15:20:22.494Z,13.90
2023-05-19T15:22:49.244Z,13.90
2023-05-19T15:25:16.166Z,13.90
2023-05-19T15:27:43.007Z,13.90
2023-05-19T15:30:09.930Z,14.00
2023-05-19T15:32:36.793Z,13.90
2023-05-19T15:35:03.644Z,13.90
2023-05-19T15:37:30.371Z,13.90
2023-05-19T15:39:57.056Z,13.90
2023-05-19T15:42:23.782Z,13.90
2023-05-19T15:44:50.687Z,13.90
2023-05-19T15:47:17.431Z,13.90
2023-05-19T15:49:44.216Z,13.90
2023-05-19T15:52:10.981Z,14.00
2023-05-19T15:54:37.880Z,14.00
2023-05-19T15:57:04.696Z,14.00
2023-05-19T15:59:31.454Z,14.00
2023-05-19T16:01:58.488Z,14.00
2023-05-19T16:04:25.401Z,14.00
2023-05-19T16:06:52.312Z,14.10
2023-05-19T16:09:19.016Z,14.00
2023-05-19T16:11:45.859Z,14.00
2023-05-19T16:14:12.647Z,13.90
2023-05-19T16:16:39.749Z,14.00
2023-05-19T16:19:06.735Z,14.00
2023-05-19T16:21:33.459Z,14.00
2023-05-19T16:24:00.318Z,14.00
2023-05-19T16:26:28.811Z,14.00
2023-05-19T16:28:56.368Z,14.00
2023-05-19T16:31:23.319Z,14.00
2023-05-19T16:33:50.095Z,14.10
2023-05-19T16:36:16.893Z,14.10
2023-05-19T16:38:43.594Z,14.20
2023-05-19T16:41:13.203Z,14.20
2023-05-19T16:43:40.030Z,14.20
2023-05-19T16:46:07.055Z,14.20
2023-05-19T16:48:33.921Z,14.20
2023-05-19T16:51:00.941Z,14.20
2023-05-19T16:53:27.729Z,14.20
2023-05-19T16:55:54.794Z,14.20
2023-05-19T16:58:21.836Z,14.20
2023-05-19T17:00:52.123Z,14.20
2023-05-19T17:03:19.542Z,14.20
2023-05-19T17:05:46.575Z,14.20
2023-05-19T17:08:13.409Z,14.20
2023-05-19T17:10:40.330Z,14.20
2023-05-19T17:13:07.049Z,14.20
2023-05-19T17:15:34.751Z,14.20
2023-05-19T17:18:01.501Z,14.30
2023-05-19T17:20:28.384Z,14.30
2023-05-19T17:22:55.187Z,14.30
2023-05-19T17:25:21.936Z,14.30
2023-05-19T17:27:48.632Z,14.20
2023-05-19T17:30:16.434Z,14.20
2023-05-19T17:32:43.341Z,14.20
2023-05-19T17:35:10.265Z,14.20
2023-05-19T17:37:37.201Z,14.20
2023-05-19T17:40:04.256Z,14.20
2023-05-19T17:42:31.757Z,14.20
2023-05-19T17:44:58.602Z,14.20
2023-05-19T17:47:25.722Z,14.20
2023-05-19T17:49:55.348Z,14.20
2023-05-19T17:52:22.427Z,14.10
2023-05-19T17:54:50.474Z,14.10
2023-05-19T17:57:18.511Z,14.10
2023-05-19T17:59:45.685Z,14.10
2023-05-19T18:02:12.847Z,14.10
2023-05-19T18:04:40.059Z,14.10
2023-05-19T18:07:09.446Z,14.10
2023-05-19T18:09:43.514Z,14.00
2023-05-19T18:12:11.031Z,14.00
2023-05-19T18:14:37.941Z,14.00
2023-05-19T18:17:05.192Z,14.00
2023-05-19T18:19:32.090Z,14.00
2023-05-19T18:21:58.939Z,14.10
2023-05-19T18:24:25.709Z,14.00
2023-05-19T18:26:52.481Z,14.00
2023-05-19T18:29:19.292Z,14.00
2023-05-19T18:31:46.120Z,13.90
2023-05-19T18:34:14.028Z,13.80
2023-05-19T18:36:41.763Z,13.80
2023-05-19T18:39:08.495Z,13.70
2023-05-19T18:41:37.430Z,13.70
2023-05-19T18:44:05.973Z,13.60
2023-05-19T18:46:33.689Z,13.50
2023-05-19T18:49:00.815Z,13.40
2023-05-19T18:51:27.536Z,13.30
2023-05-19T18:53:54.280Z,13.30
2023-05-19T18:56:25.112Z,13.10
2023-05-19T18:58:52.493Z,13.00
2023-05-19T19:01:19.382Z,13.00
2023-05-19T19:03:49.453Z,13.00
2023-05-19T19:06:17.283Z,13.00
2023-05-19T19:08:44.427Z,12.80
2023-05-19T19:11:11.346Z,12.70
2023-05-19T19:13:38.412Z,12.60
2023-05-19T19:16:05.617Z,12.40
2023-05-19T19:18:32.574Z,12.40
2023-05-19T19:21:01.523Z,12.50
2023-05-19T19:23:28.464Z,12.40
2023-05-19T19:25:56.586Z,12.40
2023-05-19T19:28:23.757Z,12.40
2023-05-19T19:30:51.091Z,12.30
2023-05-19T19:33:17.918Z,12.30
2023-05-19T19:35:47.008Z,12.20
2023-05-19T19:38:14.441Z,12.20
2023-05-19T19:40:41.320Z,12.10
2023-05-19T19:43:08.126Z,12.10
2023-05-19T19:45:36.333Z,12.10
2023-05-19T19:48:03.135Z,12.20
2023-05-19T19:50:30.060Z,12.10
2023-05-19T19:52:56.931Z,11.90
2023-05-19T19:55:23.711Z,11.90
2023-05-19T19:57:51.461Z,11.90
2023-05-19T20:00:18.523Z,11.90
2023-05-19T20:03:02.756Z,11.90
2023-05-19T20:05:31.075Z,11.90
2023-05-19T20:07:57.872Z,11.90
2023-05-19T20:10:24.732Z,11.80
2023-05-19T20:12:51.933Z,11.80
2023-05-19T20:15:18.860Z,11.80
2023-05-19T20:17:45.903Z,11.80
2023-05-19T20:20:14.668Z,11.80
2023-05-19T20:22:41.530Z,11.80
2023-05-19T20:25:08.774Z,11.80
2023-05-19T20:27:35.819Z,11.80
2023-05-19T20:30:03.297Z,11.80
2023-05-19T20:32:30.099Z,11.70
2023-05-19T20:34:57.240Z,11.70
2023-05-19T20:37:24.105Z,11.70
2023-05-19T20:39:50.945Z,11.70
2023-05-19T20:42:17.738Z,11.70
2023-05-19T20:44:44.665Z,11.70
2023-05-19T20:47:11.557Z,11.70
2023-05-19T20:49:38.282Z,11.70
2023-05-19T20:52:05.479Z,11.70
2023-05-19T20:54:32.383Z,11.70
2023-05-19T20:56:59.216Z,11.70
2023-05-19T20:59:26.029Z,11.70
2023-05-19T21:01:52.857Z,11.80
2023-05-19T21:04:19.649Z,11.80
2023-05-19T21:06:46.459Z,11.70
2023-05-19T21:09:14.692Z,11.70
2023-05-19T21:11:41.506Z,11.60
2023-05-19T21:14:08.585Z,11.60
2023-05-19T21:16:38.769Z,11.70
2023-05-19T21:19:09.319Z,11.70
2023-05-19T21:21:36.325Z,11.70
2023-05-19T21:24:03.224Z,11.60
2023-05-19T21:26:29.939Z,11.70
2023-05-19T21:28:56.663Z,11.70
2023-05-19T21:31:23.581Z,11.60
2023-05-19T21:33:50.399Z,11.60
2023-05-19T21:36:17.248Z,11.60
2023-05-19T21:38:44.048Z,11.60
2023-05-19T21:41:11.308Z,11.60
2023-05-19T21:43:38.199Z,11.50
2023-05-19T21:46:04.989Z,11.40
2023-05-19T21:48:31.749Z,11.40
2023-05-19T21:50:58.509Z,11.40
2023-05-19T21:53:25.633Z,11.40
2023-05-19T21:55:52.587Z,11.40
2023-05-19T21:58:19.562Z,11.30
2023-05-19T22:00:50.762Z,11.30
2023-05-19T22:03:17.710Z,11.30
2023-05-19T22:05:51.796Z,11.30
2023-05-19T22:08:19.779Z,11.30
2023-05-19T22:10:53.638Z,11.20
2023-05-19T22:13:21.371Z,11.10
2023-05-19T22:15:48.329Z,11.10
2023-05-19T22:18:15.261Z,11.00
2023-05-19T22:20:42.137Z,11.00
2023-05-19T22:23:09.108Z,11.00
2023-05-19T22:25:35.916Z,11.10
2023-05-19T22:28:02.937Z,11.10
2023-05-19T22:30:29.890Z,11.10
2023-05-19T22:32:56.767Z,11.00
2023-05-19T22:35:24.383Z,10.90
2023-05-19T22:37:51.340Z,10.90
2023-05-19T22:40:18.262Z,10.90
2023-05-19T22:42:45.269Z,10.90
2023-05-19T22:45:12.348Z,10.90
2023-05-19T22:47:39.061Z,10.90
2023-05-19T22:50:09.777Z,10.80
2023-05-19T22:52:37.334Z,10.80
2023-05-19T22:55:04.929Z,10.70
2023-05-19T22:57:31.794Z,10.80
2023-05-19T22:59:58.630Z,10.80
2023-05-19T23:02:27.180Z,10.80
2023-05-19T23:04:54.089Z,10.80
2023-05-19T23:07:21.052Z,10.70
2023-05-19T23:09:47.927Z,10.80
2023-05-19T23:12:14.794Z,10.80
2023-05-19T23:14:41.521Z,10.80
2023-05-19T23:17:08.447Z,10.80
2023-05-19T23:19:36.471Z,10.80
2023-05-19T23:22:03.398Z,10.80
2023-05-19T23:24:30.103Z,10.80
2023-05-19T23:26:56.814Z,10.90
2023-05-19T23:29:23.711Z,10.80
2023-05-19T23:31:50.514Z,10.80
2023-05-19T23:34:17.322Z,10.70
2023-05-19T23:36:44.398Z,10.70
2023-05-19T23:39:11.358Z,10.70
2023-05-19T23:41:38.390Z,10.70
2023-05-19T23:44:05.404Z,10.60
2023-05-19T23:46:32.338Z,10.60
2023-05-19T23:48:59.080Z,10.60
2023-05-19T23:51:25.846Z,10.60
2023-05-19T23:53:52.868Z,10.60
2023-05-19T23:56:19.616Z,10.60
2023-05-19T23:58:46.512Z,10.60
